KCKB/CKB METAR and TAF weather

Enter ICAO airport designator
Station Type Date Time Source
KCKB METAR 2021/09/19 13:53 UTC NOAA

KCKB 191353Z 00000KT 10SM CLR 22/18 A3021 RMK AO2 SLP217 T02170183


Station Type Date Time Source
KCKB Decoded METAR 2021/09/19 13:53 UTC NOAA

HARRISON/MARION REGIONAL, WV, United States (KCKB) 39-18N 080-13W 360M
Sep 19, 2021 - 09:53 AM EDT / 2021.09.19 1353 UTC
Wind: Calm:0
Visibility: 10 mile(s):0
Sky conditions: clear
Temperature: 71.1 F (21.7 C)
Dew Point: 64.9 F (18.3 C)
Relative Humidity: 81%
Pressure (altimeter): 30.21 in. Hg (1023 hPa)
ob: KCKB 191353Z 00000KT 10SM CLR 22/18 A3021 RMK AO2 SLP217 T02170183
cycle: 14

Station Type Date Time Source
KCKB TAF 2021/09/19 13:48 UTC NOAA

TAF
AMD KCKB 191246Z 1913/2012 00000KT 6SM BR SCT001
FM191400 00000KT P6SM FEW035
FM200700 00000KT 1 1/2SM BR BKN003

Example: see airport list